Time;durP1;ratioP1;P1;durP2;ratioP2;P2;SDS_P1;SDS_P2;PMS_P1;PMS_P2;Temp;Humidity;BMP_temperature;BMP_pressure;BME280_temperature;BME280_humidity;BME280_pressure;Samples;Min_cycle;Max_cycle;Signal;HPM_P1;HPM_P2
2022/11/09 00:02:07;;;;;;;1.00;0.90;;;13.70;93.30;;;;;;4959913;28;20225;-88
2022/11/09 00:04:32;;;;;;;1.87;1.57;;;13.70;93.60;;;;;;4959923;28;20217;-88
2022/11/09 00:06:58;;;;;;;6.83;2.90;;;13.70;93.00;;;;;;4959961;28;20194;-87
2022/11/09 00:09:23;;;;;;;1.10;1.00;;;13.70;93.10;;;;;;4960032;28;20201;-88
2022/11/09 00:11:49;;;;;;;1.20;1.10;;;13.70;93.30;;;;;;4960054;28;20206;-87
2022/11/09 00:14:15;;;;;;;1.73;1.40;;;13.80;93.20;;;;;;4977247;28;20265;-88
2022/11/09 00:16:41;;;;;;;1.47;1.37;;;13.80;92.80;;;;;;4948632;29;20210;-87
2022/11/09 00:19:06;;;;;;;1.33;1.23;;;13.80;92.80;;;;;;4940615;29;20973;-88
2022/11/09 00:21:32;;;;;;;1.20;1.10;;;13.80;92.80;;;;;;4940739;29;20615;-88
2022/11/09 00:23:58;;;;;;;1.20;1.10;;;13.80;93.10;;;;;;4940922;29;20187;-88
2022/11/09 00:26:26;;;;;;;1.40;1.20;;;13.80;92.70;;;;;;4940495;29;20210;-88
2022/11/09 00:28:52;;;;;;;1.27;1.23;;;13.80;92.70;;;;;;4940741;29;20190;-87
2022/11/09 00:31:20;;;;;;;1.90;1.80;;;13.80;92.70;;;;;;4939754;29;20459;-87
2022/11/09 00:33:50;;;;;;;1.47;1.40;;;13.80;92.90;;;;;;4940357;29;20274;-87
2022/11/09 00:36:16;;;;;;;1.10;1.00;;;13.90;93.50;;;;;;4940674;29;20557;-87
2022/11/09 00:38:42;;;;;;;1.43;1.33;;;13.80;93.00;;;;;;4940280;29;20422;-87
2022/11/09 00:41:10;;;;;;;1.70;1.60;;;13.80;93.30;;;;;;4940194;29;20450;-87
2022/11/09 00:43:35;;;;;;;3.33;1.57;;;13.80;93.10;;;;;;4957426;29;20614;-88
2022/11/09 00:46:02;;;;;;;1.50;1.40;;;13.80;92.90;;;;;;4939855;29;20465;-88
2022/11/09 00:48:27;;;;;;;1.13;1.03;;;13.80;93.20;;;;;;4939725;29;20431;-88
2022/11/09 00:50:54;;;;;;;5.23;1.50;;;13.80;93.70;;;;;;4939259;29;20570;-88
2022/11/09 00:53:21;;;;;;;2.07;1.87;;;13.70;93.60;;;;;;4939603;29;20193;-88
2022/11/09 00:55:58;;;;;;;2.03;1.33;;;13.70;93.80;;;;;;4940098;29;20423;-88
2022/11/09 00:58:25;;;;;;;1.70;1.60;;;13.60;94.20;;;;;;4939975;29;20517;-88
2022/11/09 01:00:51;;;;;;;1.33;1.30;;;13.60;94.10;;;;;;4940013;29;20969;-88
2022/11/09 01:03:17;;;;;;;1.80;1.70;;;13.60;94.10;;;;;;4940263;29;20419;-87
2022/11/09 01:05:43;;;;;;;1.33;1.23;;;13.60;94.30;;;;;;4939532;28;20922;-88
2022/11/09 01:08:09;;;;;;;1.60;1.50;;;13.60;94.40;;;;;;4939936;29;20425;-88
2022/11/09 01:10:34;;;;;;;1.87;1.77;;;13.60;94.50;;;;;;4940069;29;20213;-88
2022/11/09 01:13:00;;;;;;;5.17;2.40;;;13.60;95.00;;;;;;4940007;29;20705;-87
2022/11/09 01:15:25;;;;;;;1.53;1.43;;;13.50;94.40;;;;;;4940447;29;20270;-87
2022/11/09 01:17:51;;;;;;;1.10;1.00;;;13.50;94.60;;;;;;4940604;29;20554;-88
2022/11/09 01:20:17;;;;;;;1.93;1.30;;;13.50;94.80;;;;;;4940136;29;20207;-89
2022/11/09 01:22:43;;;;;;;2.13;1.97;;;13.40;95.00;;;;;;4957862;29;20180;-87
2022/11/09 01:25:09;;;;;;;2.20;1.47;;;13.40;94.90;;;;;;4957681;29;20425;-88
2022/11/09 01:27:35;;;;;;;1.33;1.23;;;13.40;95.10;;;;;;4954454;29;20706;-86
2022/11/09 01:30:01;;;;;;;1.30;1.20;;;13.40;95.10;;;;;;4952481;29;20207;-88
2022/11/09 01:32:30;;;;;;;1.43;1.37;;;13.40;95.20;;;;;;4954776;29;20437;-86
2022/11/09 01:34:55;;;;;;;1.50;1.40;;;13.40;95.30;;;;;;4962509;29;20415;-88
2022/11/09 01:37:21;;;;;;;1.30;1.20;;;13.40;95.20;;;;;;4940334;29;20445;-89
2022/11/09 01:39:46;;;;;;;4.03;1.37;;;13.40;95.20;;;;;;4957428;29;20751;-89
2022/11/09 01:42:13;;;;;;;1.53;1.10;;;13.40;95.50;;;;;;4940291;29;20254;-89
2022/11/09 01:44:41;;;;;;;2.13;1.70;;;13.40;95.50;;;;;;4940985;29;20175;-89
2022/11/09 01:47:15;;;;;;;1.33;1.23;;;13.40;96.20;;;;;;4940863;29;20949;-89
2022/11/09 01:49:52;;;;;;;2.60;2.40;;;13.40;96.00;;;;;;4940099;29;20474;-89
2022/11/09 01:52:32;;;;;;;1.30;1.20;;;13.40;96.20;;;;;;4940729;29;20427;-89
2022/11/09 01:55:06;;;;;;;2.07;1.47;;;13.40;95.70;;;;;;4940209;29;20403;-89
2022/11/09 01:58:07;;;;;;;4.00;2.50;;;13.40;95.70;;;;;;4939646;29;20430;-89
2022/11/09 02:00:36;;;;;;;1.70;1.63;;;13.40;96.00;;;;;;4929071;28;21257;-89
2022/11/09 02:03:14;;;;;;;1.63;1.53;;;13.40;96.30;;;;;;4957358;29;20473;-89
2022/11/09 02:05:41;;;;;;;1.10;1.00;;;13.40;95.80;;;;;;4940431;29;20460;-88
2022/11/09 02:08:09;;;;;;;3.33;1.80;;;13.40;96.00;;;;;;4940059;29;20426;-83
2022/11/09 02:11:03;;;;;;;1.20;1.10;;;13.40;96.40;;;;;;4939617;29;20549;-87
2022/11/09 02:13:30;;;;;;;2.63;1.70;;;13.40;96.30;;;;;;4955826;29;21045;-88
2022/11/09 02:15:57;;;;;;;1.10;1.00;;;13.40;96.20;;;;;;4938717;29;20450;-87
2022/11/09 02:18:22;;;;;;;1.80;1.70;;;13.40;96.40;;;;;;4955806;28;20422;-88
2022/11/09 02:20:53;;;;;;;1.50;1.40;;;13.40;96.40;;;;;;4940029;29;20807;-87
2022/11/09 02:23:22;;;;;;;1.97;1.23;;;13.40;96.60;;;;;;4941342;29;20214;-87
2022/11/09 02:25:53;;;;;;;1.90;1.80;;;13.40;96.50;;;;;;4953200;28;20419;-89
2022/11/09 02:28:19;;;;;;;1.43;1.20;;;13.40;96.40;;;;;;4961603;28;20499;-89
2022/11/09 02:30:49;;;;;;;1.37;1.27;;;13.30;96.50;;;;;;4961405;28;20505;-88
2022/11/09 02:33:15;;;;;;;1.87;1.77;;;13.30;97.10;;;;;;4952330;29;20544;-87
2022/11/09 02:35:40;;;;;;;2.23;2.03;;;13.40;97.30;;;;;;4939528;29;20422;-88
2022/11/09 02:38:10;;;;;;;1.20;1.10;;;13.40;97.20;;;;;;4939407;29;20234;-88
2022/11/09 02:40:39;;;;;;;1.90;1.73;;;13.40;96.70;;;;;;4939265;29;20203;-86
2022/11/09 02:43:06;;;;;;;26.77;2.07;;;13.40;97.20;;;;;;4939255;29;20501;-89
2022/11/09 02:45:32;;;;;;;1.83;1.33;;;13.40;96.60;;;;;;4956021;29;20929;-88
2022/11/09 02:47:57;;;;;;;3.40;1.50;;;13.40;96.70;;;;;;4939482;29;20423;-87
2022/11/09 02:50:23;;;;;;;1.40;1.30;;;13.40;96.70;;;;;;4941162;29;20238;-86
2022/11/09 02:52:48;;;;;;;1.73;1.63;;;13.30;96.80;;;;;;4942470;29;20772;-86
2022/11/09 02:55:14;;;;;;;3.67;2.33;;;13.40;97.00;;;;;;4941533;29;20183;-88
2022/11/09 02:57:40;;;;;;;2.20;1.53;;;13.40;96.90;;;;;;4939940;29;20171;-87
2022/11/09 03:00:06;;;;;;;1.20;1.10;;;13.30;97.00;;;;;;4938035;29;20198;-86
2022/11/09 03:02:32;;;;;;;1.77;1.53;;;13.30;97.10;;;;;;4939058;29;20203;-87
2022/11/09 03:04:57;;;;;;;1.30;1.20;;;13.30;97.00;;;;;;4938250;29;20969;-86
2022/11/09 03:07:23;;;;;;;1.80;1.73;;;13.30;97.20;;;;;;4937941;29;20179;-85
2022/11/09 03:09:49;;;;;;;1.10;1.00;;;13.30;97.20;;;;;;4938166;29;20217;-85
2022/11/09 03:12:29;;;;;;;3.20;1.40;;;13.30;96.90;;;;;;4937778;29;20592;-87
2022/11/09 03:15:00;;;;;;;1.20;1.10;;;13.30;97.00;;;;;;4937569;29;20661;-88
2022/11/09 03:17:26;;;;;;;2.37;2.23;;;13.30;97.20;;;;;;4937412;29;20469;-87
2022/11/09 03:19:53;;;;;;;1.40;1.30;;;13.30;97.30;;;;;;4937469;29;20439;-86
2022/11/09 03:22:19;;;;;;;1.60;1.40;;;13.40;97.30;;;;;;4937083;29;20423;-86
2022/11/09 03:24:45;;;;;;;1.70;1.60;;;13.40;97.20;;;;;;4954540;29;20411;-87
2022/11/09 03:27:11;;;;;;;1.10;1.00;;;13.40;97.30;;;;;;4954426;29;20178;-87
2022/11/09 03:29:36;;;;;;;2.40;1.53;;;13.40;96.90;;;;;;4955870;28;20435;-87
2022/11/09 03:32:03;;;;;;;1.33;1.23;;;13.40;97.20;;;;;;4940966;29;20603;-87
2022/11/09 03:34:28;;;;;;;1.43;1.33;;;13.30;97.10;;;;;;4941028;29;20202;-87
2022/11/09 03:36:54;;;;;;;2.70;1.90;;;13.30;97.30;;;;;;4941054;29;20917;-87
2022/11/09 03:39:19;;;;;;;1.13;1.03;;;13.30;97.30;;;;;;4941053;29;20191;-87
2022/11/09 03:41:45;;;;;;;71.37;2.60;;;13.20;97.30;;;;;;4950488;28;20195;-86
2022/11/09 03:44:10;;;;;;;1.90;1.80;;;13.20;97.30;;;;;;4943686;29;20205;-87
2022/11/09 03:46:36;;;;;;;1.27;1.07;;;13.20;97.30;;;;;;4940855;29;20191;-87
2022/11/09 03:49:01;;;;;;;1.53;1.43;;;13.20;97.30;;;;;;4941006;29;20192;-86
2022/11/09 03:51:27;;;;;;;1.60;1.50;;;13.20;97.30;;;;;;4940476;29;20226;-87
2022/11/09 03:53:52;;;;;;;1.80;1.60;;;13.20;97.30;;;;;;4958021;29;20187;-86
2022/11/09 03:56:18;;;;;;;2.00;1.70;;;13.20;97.30;;;;;;4958008;29;20175;-86
2022/11/09 03:58:43;;;;;;;2.30;2.20;;;13.20;97.30;;;;;;4940718;29;20265;-87
2022/11/09 04:01:09;;;;;;;0.90;0.80;;;13.10;97.30;;;;;;4940519;29;20273;-85
2022/11/09 04:03:35;;;;;;;5.43;2.10;;;13.10;97.30;;;;;;4940561;29;20183;-85
2022/11/09 04:06:01;;;;;;;0.90;0.80;;;13.10;97.30;;;;;;4944637;29;20190;-85
2022/11/09 04:08:27;;;;;;;1.30;1.20;;;13.10;97.30;;;;;;4962424;29;20480;-87
2022/11/09 04:10:52;;;;;;;1.33;1.30;;;13.00;97.30;;;;;;4940146;29;20697;-86
2022/11/09 04:13:18;;;;;;;1.70;1.30;;;13.00;97.30;;;;;;4940454;29;20233;-87
2022/11/09 04:15:44;;;;;;;2.73;1.70;;;13.00;97.30;;;;;;4940314;29;20269;-86
2022/11/09 04:18:12;;;;;;;1.90;1.80;;;13.00;97.30;;;;;;4957511;29;20183;-87
2022/11/09 04:20:38;;;;;;;1.90;1.47;;;13.00;97.30;;;;;;4939203;29;20439;-88
2022/11/09 04:23:06;;;;;;;1.07;1.00;;;13.00;97.30;;;;;;4940742;29;20501;-87
2022/11/09 04:25:35;;;;;;;1.10;1.00;;;13.00;97.30;;;;;;4940022;29;20187;-87
2022/11/09 04:28:02;;;;;;;1.17;1.07;;;13.00;97.30;;;;;;4940029;29;20430;-87
2022/11/09 04:30:30;;;;;;;1.83;1.73;;;13.00;97.30;;;;;;4940135;29;20557;-88
2022/11/09 04:32:56;;;;;;;2.07;1.93;;;13.00;97.30;;;;;;4939837;29;20458;-87
2022/11/09 04:35:22;;;;;;;1.87;1.77;;;13.00;97.30;;;;;;4939922;29;20429;-87
2022/11/09 04:37:56;;;;;;;1.40;1.30;;;13.00;97.30;;;;;;4939937;29;20414;-87
2022/11/09 04:40:23;;;;;;;3.07;1.30;;;13.00;97.30;;;;;;4939591;28;20207;-88
2022/11/09 04:42:49;;;;;;;1.10;1.00;;;13.10;97.30;;;;;;4939487;29;20423;-88
2022/11/09 04:45:14;;;;;;;1.30;1.20;;;13.00;97.30;;;;;;4939751;29;20478;-88
2022/11/09 04:47:40;;;;;;;1.20;1.10;;;13.00;97.30;;;;;;4940272;29;20191;-88
2022/11/09 04:50:06;;;;;;;2.67;1.67;;;13.00;97.30;;;;;;4939792;29;20329;-87
2022/11/09 04:52:32;;;;;;;1.03;0.93;;;13.10;97.30;;;;;;4939615;29;20199;-88
2022/11/09 04:54:57;;;;;;;1.33;1.23;;;13.10;97.30;;;;;;4940126;29;20427;-88
2022/11/09 04:57:23;;;;;;;1.87;1.27;;;13.10;97.30;;;;;;4956973;29;20557;-88
2022/11/09 04:59:49;;;;;;;3.80;1.57;;;13.10;97.30;;;;;;4939833;29;20199;-87
2022/11/09 05:02:14;;;;;;;1.03;1.00;;;13.10;97.30;;;;;;4939631;29;20205;-86
2022/11/09 05:04:40;;;;;;;1.30;1.20;;;13.10;97.30;;;;;;4939600;29;20243;-85
2022/11/09 05:07:05;;;;;;;2.50;2.30;;;13.10;97.30;;;;;;4939489;29;20191;-86
2022/11/09 05:09:31;;;;;;;1.20;1.10;;;13.10;97.30;;;;;;4939718;29;20234;-88
2022/11/09 05:11:56;;;;;;;3.33;1.73;;;13.10;97.30;;;;;;4939761;29;20500;-88
2022/11/09 05:14:22;;;;;;;2.30;1.30;;;13.00;97.30;;;;;;4939780;29;20183;-87
2022/11/09 05:16:47;;;;;;;1.33;1.27;;;13.00;97.30;;;;;;4951761;28;20175;-87
2022/11/09 05:19:13;;;;;;;2.40;1.93;;;13.00;97.30;;;;;;4976225;28;20202;-86
2022/11/09 05:21:38;;;;;;;1.40;1.30;;;12.90;97.30;;;;;;4957979;28;20174;-87
2022/11/09 05:24:04;;;;;;;1.43;1.23;;;12.90;97.30;;;;;;4949261;28;20285;-86
2022/11/09 05:26:34;;;;;;;1.97;1.13;;;12.90;97.30;;;;;;4965640;28;20198;-86
2022/11/09 05:29:03;;;;;;;1.57;1.47;;;12.90;97.30;;;;;;4971766;28;20183;-87
2022/11/09 05:31:29;;;;;;;1.50;1.40;;;12.80;97.30;;;;;;4943150;29;21024;-87
2022/11/09 05:33:55;;;;;;;4.67;2.57;;;12.80;97.30;;;;;;4938942;29;20423;-87
2022/11/09 05:36:21;;;;;;;1.10;1.00;;;12.80;97.30;;;;;;4939287;29;20418;-88
2022/11/09 05:38:47;;;;;;;1.47;1.37;;;12.70;97.30;;;;;;4956315;29;20407;-87
2022/11/09 05:41:13;;;;;;;1.40;1.30;;;12.70;97.30;;;;;;4944009;28;20928;-86
2022/11/09 05:43:39;;;;;;;1.63;1.53;;;12.80;97.30;;;;;;4950478;28;20430;-87
2022/11/09 05:46:05;;;;;;;1.30;1.20;;;12.80;97.30;;;;;;4958787;28;20418;-88
2022/11/09 05:48:30;;;;;;;6.80;2.00;;;12.80;97.30;;;;;;4958655;28;20214;-87
2022/11/09 05:51:01;;;;;;;1.00;0.90;;;12.80;97.30;;;;;;4959802;28;20505;-87
2022/11/09 05:53:26;;;;;;;4.50;2.50;;;12.80;97.30;;;;;;4955491;28;20674;-87
2022/11/09 05:55:52;;;;;;;1.20;1.10;;;12.80;97.30;;;;;;4946474;28;20519;-88
2022/11/09 05:58:17;;;;;;;14.17;1.37;;;12.70;97.30;;;;;;4948724;28;20186;-88
2022/11/09 06:00:47;;;;;;;1.57;1.43;;;12.70;97.30;;;;;;4955326;28;20309;-87
2022/11/09 06:03:12;;;;;;;1.63;1.60;;;12.70;97.30;;;;;;4958188;28;20561;-87
2022/11/09 06:05:39;;;;;;;1.57;1.47;;;12.70;97.30;;;;;;4968802;28;20418;-87
2022/11/09 06:08:07;;;;;;;1.63;1.53;;;12.60;97.30;;;;;;4943238;29;20195;-86
2022/11/09 06:10:33;;;;;;;1.73;1.63;;;12.50;97.30;;;;;;4943129;29;20529;-87
2022/11/09 06:12:58;;;;;;;1.67;1.57;;;12.50;97.30;;;;;;4943502;29;20426;-87
2022/11/09 06:15:24;;;;;;;1.43;1.33;;;12.50;97.30;;;;;;4943293;28;20423;-87
2022/11/09 06:17:57;;;;;;;1.53;1.30;;;12.50;97.30;;;;;;4961307;28;20198;-86
2022/11/09 06:20:24;;;;;;;1.53;1.43;;;12.60;97.30;;;;;;4962019;28;20217;-87
2022/11/09 06:22:57;;;;;;;3.50;2.30;;;12.60;97.30;;;;;;4960596;28;20778;-87
2022/11/09 06:25:23;;;;;;;2.50;2.13;;;12.60;97.30;;;;;;4976621;28;20424;-87
2022/11/09 06:27:49;;;;;;;2.33;2.03;;;12.60;97.30;;;;;;4959077;28;20512;-87
2022/11/09 06:30:15;;;;;;;2.33;2.13;;;12.70;97.30;;;;;;4972903;28;20521;-90
2022/11/09 06:32:41;;;;;;;3.63;1.47;;;12.70;97.30;;;;;;4970541;28;20435;-88
2022/11/09 06:35:07;;;;;;;1.60;1.50;;;12.70;97.30;;;;;;4973225;28;20461;-92
2022/11/09 06:37:33;;;;;;;1.70;1.60;;;12.70;97.30;;;;;;4978657;28;20211;-87
2022/11/09 06:39:58;;;;;;;2.30;1.10;;;12.70;97.30;;;;;;4961763;28;20437;-87
2022/11/09 06:42:26;;;;;;;4.60;3.83;;;12.70;97.30;;;;;;4950009;29;20191;-87
2022/11/09 06:44:52;;;;;;;1.90;1.80;;;12.70;97.30;;;;;;4952157;29;20191;-84
2022/11/09 06:47:20;;;;;;;1.43;1.33;;;12.80;97.30;;;;;;4940363;28;20497;-84
2022/11/09 06:49:46;;;;;;;3.17;1.27;;;12.80;97.30;;;;;;4949634;28;20780;-87
2022/11/09 06:52:11;;;;;;;2.57;2.37;;;12.80;97.30;;;;;;4938508;28;20538;-87
2022/11/09 06:54:37;;;;;;;2.33;1.80;;;12.80;97.30;;;;;;4943635;29;20241;-87
2022/11/09 06:57:02;;;;;;;1.77;1.73;;;12.80;97.30;;;;;;4948932;28;20175;-87
2022/11/09 06:59:28;;;;;;;1.20;1.10;;;12.70;97.30;;;;;;4945658;29;20199;-87
2022/11/09 07:01:56;;;;;;;3.53;1.80;;;12.70;97.30;;;;;;4949341;28;20210;-87
2022/11/09 07:04:22;;;;;;;4.43;1.77;;;12.70;97.30;;;;;;4947335;28;20273;-87
2022/11/09 07:06:47;;;;;;;1.87;1.77;;;12.70;97.30;;;;;;4950801;28;20473;-87
2022/11/09 07:09:13;;;;;;;1.33;1.23;;;12.60;97.30;;;;;;4947730;28;20262;-87
2022/11/09 07:11:38;;;;;;;2.30;1.43;;;12.50;97.30;;;;;;4956821;29;20226;-87
2022/11/09 07:14:04;;;;;;;2.27;2.07;;;12.40;97.30;;;;;;4957655;28;20183;-87
2022/11/09 07:16:30;;;;;;;1.43;1.33;;;12.40;97.30;;;;;;4950375;29;20210;-87
2022/11/09 07:18:56;;;;;;;4.00;1.63;;;12.30;97.30;;;;;;4938847;29;20286;-87
2022/11/09 07:21:22;;;;;;;14.03;1.70;;;12.20;97.30;;;;;;4937368;29;21027;-88
2022/11/09 07:23:49;;;;;;;4.63;1.63;;;12.10;97.30;;;;;;4937303;29;20178;-87
2022/11/09 07:26:15;;;;;;;3.10;1.50;;;12.00;97.30;;;;;;4937745;29;20187;-87
2022/11/09 07:28:41;;;;;;;1.07;1.03;;;11.90;97.30;;;;;;4940598;28;20537;-87
2022/11/09 07:31:07;;;;;;;1.20;1.10;;;11.90;97.30;;;;;;4946705;28;20989;-87
2022/11/09 07:33:32;;;;;;;1.27;1.20;;;11.90;97.30;;;;;;4951621;28;20176;-86
2022/11/09 07:36:00;;;;;;;2.40;1.30;;;11.80;97.30;;;;;;4949949;28;20551;-87
2022/11/09 07:38:27;;;;;;;4.23;2.10;;;11.80;97.30;;;;;;4957454;28;20191;-86
2022/11/09 07:40:52;;;;;;;1.53;1.47;;;11.80;97.30;;;;;;4943032;29;20525;-86
2022/11/09 07:43:19;;;;;;;2.30;2.07;;;11.80;97.30;;;;;;4937319;29;20883;-87
2022/11/09 07:45:44;;;;;;;2.60;1.30;;;11.80;97.30;;;;;;4939845;28;20183;-86
2022/11/09 07:48:11;;;;;;;1.33;1.30;;;11.70;97.30;;;;;;4955400;28;20521;-87
2022/11/09 07:50:38;;;;;;;1.80;1.70;;;11.70;97.30;;;;;;4954115;28;20273;-87
2022/11/09 07:53:06;;;;;;;1.40;1.30;;;11.70;97.30;;;;;;4954465;28;20426;-87
2022/11/09 07:55:32;;;;;;;1.60;1.50;;;11.70;97.30;;;;;;4954505;28;20940;-87
2022/11/09 07:57:59;;;;;;;4.03;3.00;;;11.70;97.30;;;;;;4954692;28;20458;-87
2022/11/09 08:00:27;;;;;;;2.73;2.50;;;11.70;97.30;;;;;;4954502;28;20789;-88
2022/11/09 08:02:53;;;;;;;2.20;1.70;;;11.70;97.30;;;;;;4955709;28;20763;-87
2022/11/09 08:05:19;;;;;;;6.10;2.70;;;11.70;97.30;;;;;;4954418;28;20513;-88
2022/11/09 08:07:45;;;;;;;8.80;2.23;;;11.70;97.30;;;;;;4954865;28;20512;-87
2022/11/09 08:10:11;;;;;;;1.53;1.43;;;11.60;97.30;;;;;;4955109;28;20206;-87
2022/11/09 08:12:36;;;;;;;1.40;1.30;;;11.60;97.30;;;;;;4972287;28;20476;-87
2022/11/09 08:15:02;;;;;;;1.47;1.37;;;11.60;97.30;;;;;;4954992;28;20569;-87
2022/11/09 08:17:27;;;;;;;1.30;1.20;;;11.70;97.30;;;;;;4956420;28;20179;-87
2022/11/09 08:19:53;;;;;;;1.30;1.20;;;11.70;97.30;;;;;;4957228;29;20626;-87
2022/11/09 08:22:18;;;;;;;1.47;1.37;;;11.70;97.30;;;;;;4939245;29;20183;-87
2022/11/09 08:24:44;;;;;;;2.50;1.53;;;11.70;97.30;;;;;;4939350;29;20268;-87
2022/11/09 08:27:09;;;;;;;2.80;2.03;;;11.70;97.30;;;;;;4938988;29;20187;-87
2022/11/09 08:29:35;;;;;;;2.13;1.97;;;11.60;97.30;;;;;;4938717;29;20290;-87
2022/11/09 08:32:01;;;;;;;1.40;1.17;;;11.60;97.30;;;;;;4939796;29;20504;-87
2022/11/09 08:34:26;;;;;;;5.20;2.30;;;11.60;97.30;;;;;;4938978;29;20543;-87
2022/11/09 08:36:52;;;;;;;1.70;1.60;;;11.60;97.30;;;;;;4939554;29;20622;-87
2022/11/09 08:39:18;;;;;;;2.13;1.97;;;11.70;97.30;;;;;;4939537;29;20202;-87
2022/11/09 08:41:44;;;;;;;2.67;2.47;;;11.70;97.30;;;;;;4939238;29;20203;-89
2022/11/09 08:44:09;;;;;;;2.87;2.40;;;11.70;97.30;;;;;;4939248;29;20950;-88
2022/11/09 08:46:35;;;;;;;1.37;1.27;;;11.70;97.30;;;;;;4939359;29;20179;-87
2022/11/09 08:49:00;;;;;;;1.40;1.30;;;11.80;97.30;;;;;;4939609;29;20179;-89
2022/11/09 08:51:26;;;;;;;1.87;1.73;;;11.80;97.30;;;;;;4955974;29;20227;-87
2022/11/09 08:53:51;;;;;;;1.60;1.50;;;11.80;97.30;;;;;;4939634;29;20186;-88
2022/11/09 08:56:17;;;;;;;5.67;1.27;;;11.80;97.30;;;;;;4939998;29;20295;-89
2022/11/09 08:58:44;;;;;;;0.90;0.90;;;11.90;97.30;;;;;;4939665;29;20230;-89
2022/11/09 09:01:10;;;;;;;2.83;1.87;;;11.90;97.30;;;;;;4939667;29;20439;-87
2022/11/09 09:03:36;;;;;;;1.50;1.23;;;12.00;97.30;;;;;;4958521;29;20411;-86
2022/11/09 09:06:06;;;;;;;1.43;1.27;;;12.00;97.30;;;;;;4943180;29;20515;-88
2022/11/09 09:08:31;;;;;;;1.10;1.00;;;12.00;97.30;;;;;;4941304;29;20206;-88
2022/11/09 09:11:02;;;;;;;2.60;2.40;;;12.10;97.30;;;;;;4939332;29;20470;-87
2022/11/09 09:13:27;;;;;;;2.00;1.90;;;12.10;97.30;;;;;;4956852;29;20174;-88
2022/11/09 09:15:53;;;;;;;1.60;1.50;;;12.10;97.30;;;;;;4939286;29;20419;-88
2022/11/09 09:18:19;;;;;;;1.70;1.60;;;12.10;97.30;;;;;;4938407;29;20179;-87
2022/11/09 09:20:44;;;;;;;3.60;2.77;;;12.20;97.30;;;;;;4938636;29;20210;-87
2022/11/09 09:23:11;;;;;;;1.50;1.40;;;12.20;97.30;;;;;;4938742;29;20199;-88
2022/11/09 09:25:37;;;;;;;1.10;1.00;;;12.30;97.30;;;;;;4938876;29;20666;-88
2022/11/09 09:28:02;;;;;;;1.50;1.40;;;12.40;97.30;;;;;;4939248;29;20426;-88
2022/11/09 09:30:28;;;;;;;2.00;1.10;;;12.40;97.30;;;;;;4940990;29;20350;-88
2022/11/09 09:32:58;;;;;;;1.63;1.53;;;12.50;97.30;;;;;;4951073;28;20186;-88
2022/11/09 09:35:23;;;;;;;3.37;1.73;;;12.60;97.30;;;;;;4975311;28;20665;-89
2022/11/09 09:37:49;;;;;;;2.17;2.00;;;12.60;97.30;;;;;;4958499;28;20434;-87
2022/11/09 09:40:32;;;;;;;2.13;1.97;;;12.70;97.30;;;;;;4974276;28;20242;-88
2022/11/09 09:42:57;;;;;;;2.47;2.33;;;12.70;97.30;;;;;;4957526;28;20200;-88
2022/11/09 09:45:27;;;;;;;3.03;2.17;;;12.80;97.30;;;;;;4957359;28;21007;-88
2022/11/09 09:48:28;;;;;;;2.63;2.43;;;12.90;97.30;;;;;;4954380;29;20242;-87
2022/11/09 09:51:00;;;;;;;1.67;1.67;;;12.90;97.30;;;;;;4937727;28;20484;-89
2022/11/09 09:53:35;;;;;;;1.30;1.20;;;13.10;97.30;;;;;;4938548;29;20415;-88
2022/11/09 09:56:12;;;;;;;2.57;1.80;;;13.30;97.30;;;;;;4938636;29;20429;-89
2022/11/09 09:58:45;;;;;;;3.93;2.20;;;13.60;97.30;;;;;;4938224;29;21000;-87
2022/11/09 10:01:15;;;;;;;1.67;1.47;;;13.70;97.30;;;;;;4955449;29;20545;-88
2022/11/09 10:03:41;;;;;;;2.40;1.90;;;13.80;97.30;;;;;;4937526;29;20430;-88
2022/11/09 10:06:38;;;;;;;2.03;1.60;;;13.80;97.30;;;;;;4937883;29;20775;-89
2022/11/09 10:09:27;;;;;;;1.23;1.13;;;13.80;97.30;;;;;;4937958;29;20187;-89
2022/11/09 10:12:12;;;;;;;3.43;1.90;;;13.80;97.30;;;;;;4937115;29;20478;-88
2022/11/09 10:15:02;;;;;;;1.70;1.60;;;13.80;97.30;;;;;;4936712;29;20465;-88
2022/11/09 10:17:54;;;;;;;1.40;1.30;;;13.80;97.30;;;;;;4937463;29;20465;-88
2022/11/09 10:20:39;;;;;;;2.30;1.67;;;13.90;97.30;;;;;;4937419;29;20477;-89
2022/11/09 10:23:30;;;;;;;1.00;0.90;;;14.00;97.30;;;;;;4953416;29;20510;-88
2022/11/09 10:26:04;;;;;;;1.10;1.03;;;14.30;97.30;;;;;;4936747;29;20801;-88
2022/11/09 10:28:32;;;;;;;4.20;2.07;;;14.50;97.30;;;;;;4937658;29;20407;-87
2022/11/09 10:31:00;;;;;;;1.93;1.30;;;14.70;97.30;;;;;;4937194;29;20501;-88
2022/11/09 10:33:27;;;;;;;1.37;1.23;;;14.80;97.30;;;;;;4937882;29;20423;-89
2022/11/09 10:36:17;;;;;;;1.40;1.10;;;15.00;97.30;;;;;;4947559;29;20422;-89
2022/11/09 10:38:48;;;;;;;1.47;1.37;;;15.10;97.30;;;;;;4960949;28;20415;-89
2022/11/09 10:41:38;;;;;;;1.50;1.40;;;15.10;97.30;;;;;;4961699;28;20462;-90
2022/11/09 10:44:08;;;;;;;2.50;1.50;;;15.30;97.30;;;;;;4961701;28;20455;-90
2022/11/09 10:47:21;;;;;;;2.33;2.17;;;15.50;97.30;;;;;;4943968;28;20431;-89
2022/11/09 10:50:21;;;;;;;1.63;1.40;;;15.70;97.30;;;;;;4934542;29;20506;-89
2022/11/09 10:52:47;;;;;;;1.57;1.47;;;15.60;97.30;;;;;;4937149;29;20430;-89
2022/11/09 10:55:22;;;;;;;1.73;1.63;;;15.60;97.30;;;;;;4937720;29;20415;-88
2022/11/09 10:58:22;;;;;;;2.43;1.50;;;15.60;97.30;;;;;;4953967;29;20441;-88
2022/11/09 11:01:19;;;;;;;1.00;0.90;;;15.60;97.30;;;;;;4923052;28;20999;-88
2022/11/09 11:03:51;;;;;;;2.90;1.60;;;15.60;97.30;;;;;;4936090;29;20419;-88
2022/11/09 11:06:26;;;;;;;1.00;0.90;;;15.60;97.30;;;;;;4935788;29;20418;-88
2022/11/09 11:09:12;;;;;;;1.87;1.87;;;15.70;97.30;;;;;;4937061;29;20446;-88
2022/11/09 11:11:38;;;;;;;9.00;2.30;;;15.60;97.30;;;;;;4936469;29;20454;-88
2022/11/09 11:14:35;;;;;;;1.23;1.13;;;15.50;97.30;;;;;;4954418;29;20403;-88
2022/11/09 11:17:01;;;;;;;1.00;0.90;;;15.50;97.30;;;;;;4928776;29;20415;-88
2022/11/09 11:19:40;;;;;;;2.70;1.80;;;15.50;97.30;;;;;;4936170;29;20438;-88
2022/11/09 11:22:11;;;;;;;1.00;0.90;;;15.40;97.30;;;;;;4936637;29;20988;-89
2022/11/09 11:24:57;;;;;;;1.10;1.00;;;15.40;97.30;;;;;;4937157;29;20430;-89
2022/11/09 11:27:28;;;;;;;1.43;1.10;;;15.40;97.30;;;;;;4954385;29;20414;-88
2022/11/09 11:30:00;;;;;;;4.50;2.37;;;15.50;97.30;;;;;;4936814;29;20444;-88
2022/11/09 11:32:26;;;;;;;1.37;1.27;;;15.50;97.30;;;;;;4936480;29;20462;-88
2022/11/09 11:34:51;;;;;;;1.87;1.80;;;15.40;97.30;;;;;;4937140;29;20922;-90
2022/11/09 11:37:43;;;;;;;1.27;0.90;;;15.40;97.30;;;;;;4936713;29;20226;-88
2022/11/09 11:40:21;;;;;;;2.23;1.57;;;15.40;97.30;;;;;;4936656;29;20241;-88
2022/11/09 11:43:05;;;;;;;0.90;0.80;;;15.30;97.30;;;;;;4937055;29;20431;-88
2022/11/09 11:45:39;;;;;;;1.10;1.00;;;15.30;97.30;;;;;;4936351;29;20419;-89
2022/11/09 11:48:31;;;;;;;3.63;1.70;;;15.30;97.30;;;;;;4936842;29;20422;-88
2022/11/09 11:51:11;;;;;;;1.10;0.87;;;15.30;97.30;;;;;;5015682;23;20478;-85
2022/11/09 11:53:56;;;;;;;1.03;0.97;;;15.20;97.30;;;;;;5019718;28;20425;-85
2022/11/09 11:56:29;;;;;;;1.10;1.00;;;15.20;97.30;;;;;;5032856;28;20926;-85
2022/11/09 11:59:21;;;;;;;1.43;1.10;;;15.20;97.30;;;;;;5032759;28;20466;-85
2022/11/09 12:02:17;;;;;;;1.27;1.17;;;15.30;97.30;;;;;;5014136;28;20403;-85
2022/11/09 12:05:14;;;;;;;1.40;1.40;;;15.30;97.30;;;;;;5013014;28;21004;-85
2022/11/09 12:07:51;;;;;;;0.93;0.83;;;15.40;97.30;;;;;;4981074;28;20420;-85
2022/11/09 12:10:44;;;;;;;1.07;1.00;;;15.40;97.30;;;;;;5012720;28;20446;-86
2022/11/09 12:13:20;;;;;;;1.20;0.90;;;15.40;97.30;;;;;;5012855;28;20427;-85
2022/11/09 12:15:53;;;;;;;1.53;1.43;;;15.40;97.30;;;;;;5005718;28;20422;-84
2022/11/09 12:18:41;;;;;;;1.03;0.97;;;15.40;97.30;;;;;;4974034;28;20425;-85
2022/11/09 12:21:12;;;;;;;1.53;1.13;;;15.50;97.30;;;;;;4973942;28;20986;-86
2022/11/09 12:23:59;;;;;;;2.23;1.60;;;15.50;97.30;;;;;;4973625;28;20417;-86
2022/11/09 12:27:02;;;;;;;1.93;1.57;;;15.60;97.30;;;;;;4973784;28;20418;-85
2022/11/09 12:29:36;;;;;;;2.27;1.63;;;15.60;97.30;;;;;;4973719;28;20490;-85
2022/11/09 12:32:27;;;;;;;1.23;1.17;;;15.80;97.30;;;;;;4973511;28;20890;-85
2022/11/09 12:35:12;;;;;;;1.30;1.20;;;15.90;97.30;;;;;;4973522;28;20438;-85
2022/11/09 12:37:45;;;;;;;1.80;1.70;;;16.10;97.30;;;;;;4973260;28;20446;-84
2022/11/09 12:40:31;;;;;;;0.90;0.83;;;16.30;97.30;;;;;;4973466;28;20453;-85
2022/11/09 12:43:23;;;;;;;1.20;1.10;;;16.50;97.30;;;;;;4973500;28;20414;-85
2022/11/09 12:45:51;;;;;;;1.07;0.97;;;16.70;97.30;;;;;;4969553;28;20835;-85
2022/11/09 12:48:25;;;;;;;9.17;2.07;;;17.00;97.30;;;;;;4973458;28;20921;-85
2022/11/09 12:50:52;;;;;;;1.53;1.23;;;17.20;97.30;;;;;;4972724;28;20536;-86
2022/11/09 12:53:24;;;;;;;1.10;1.00;;;17.40;97.30;;;;;;4974325;28;20414;-84
2022/11/09 12:56:16;;;;;;;1.00;0.90;;;17.50;97.20;;;;;;4973516;28;20411;-86
2022/11/09 12:58:42;;;;;;;1.90;1.83;;;17.60;96.40;;;;;;4981189;28;20420;-85
2022/11/09 13:01:33;;;;;;;1.90;1.80;;;17.50;96.10;;;;;;4992327;28;20441;-85